Autumn — V7QA6 — position and weather

sailwx.info

Track history (hours):
 
Tides and Currents Weather Stations Pressure Air Temp Water Temp Dewpoint Dewpoint Depression Visibility Wind Speed Wind Dir Waves Ship Positions

Autumn

Last reported at 2015-May-29 15:31 UTC. Time now 2015-May-29 16:22 UTC.
Position N 50°57' E 001°12'.

Length 129 m; draft 8.3 m.

Type: Tanker. MMSI: 538003323.

Date/timePositionNaut miles runAvg speedWind from/ knotsBaromVisibWave heightAir tempDewpointWater temp
2015-May-29 15:31N 50°57' E 001°12'1111.2
2015-May-29 14:34N 51°03' E 001°25'1211.7
2015-May-29 13:33N 51°11' E 001°39'1110.6
2015-May-29 12:33N 51°19' E 001°51'10 9.6
2015-May-29 11:33N 51°25' E 002°03'1111.0
2015-May-29 10:33N 51°21' E 002°20'1010.5
2015-May-29 09:33N 51°23' E 002°36'1010.0
2015-May-29 08:33N 51°23' E 002°52'1110.9
2015-May-29 07:33N 51°24' E 003°10'1111.2
2015-May-29 06:33N 51°25' E 003°27'9 9.2
2015-May-29 05:33N 51°26' E 003°42'10 9.7
2015-May-29 04:34N 51°24' E 003°57'9 9.2
2015-May-29 03:33N 51°24' E 004°12'9 8.9
2015-May-29 02:34N 51°17' E 004°20'0 0.0
2015-May-29 01:34N 51°17' E 004°20'1 0.8
2015-May-29 00:33N 51°17' E 004°20'0 0.0
2015-May-28 23:33N 51°17' E 004°20'0 0.0
2015-May-28 22:33N 51°17' E 004°20'0 0.0
2015-May-28 21:33N 51°17' E 004°20'0 0.0
2015-May-28 20:33N 51°17' E 004°20'0 0.0
2015-May-28 19:33N 51°17' E 004°20'0 0.0
2015-May-28 18:33N 51°17' E 004°20'0 0.0
2015-May-28 17:33N 51°17' E 004°20'0 0.0
2015-May-28 16:33N 51°17' E 004°20'0 0.0
2015-May-28 15:33N 51°17' E 004°20'0 0.0
2015-May-28 14:33N 51°17' E 004°20'0 0.0
2015-May-28 13:33N 51°17' E 004°20'0 0.0
2015-May-28 12:33N 51°17' E 004°20'0 0.0
2015-May-28 11:30N 51°17' E 004°20'0 0.0
2015-May-28 10:30N 51°17' E 004°20'0 0.2
2015-May-28 09:33N 51°17' E 004°20'0 0.3
2015-May-28 08:33N 51°18' E 004°20'0 0.0
2015-May-28 07:34N 51°18' E 004°20'0 0.0
2015-May-28 06:33N 51°18' E 004°20'0 0.0
2015-May-28 05:34N 51°18' E 004°20'0 0.0
2015-May-28 04:34N 51°18' E 004°20'0 0.0
2015-May-28 03:34N 51°18' E 004°20'0 0.0
2015-May-28 02:34N 51°18' E 004°20'0 0.0
2015-May-28 01:34N 51°18' E 004°20'0 0.0
2015-May-28 00:34N 51°18' E 004°20'0 0.0
2015-May-27 23:34N 51°18' E 004°20'0 0.0
2015-May-27 22:34N 51°18' E 004°20'0 0.0
2015-May-27 21:34N 51°18' E 004°20'0 0.0
2015-May-27 20:34N 51°18' E 004°20'0 0.0
2015-May-27 19:33N 51°18' E 004°20'0 0.0
2015-May-27 18:34N 51°18' E 004°20'0 0.4
2015-May-27 17:34N 51°17' E 004°20'2 2.0
2015-May-27 16:34N 51°15' E 004°22'0 0.0
2015-May-27 15:34N 51°15' E 004°22'0 0.0
2015-May-27 14:33N 51°15' E 004°22'0 0.0
2015-May-27 13:33N 51°15' E 004°22'0 0.0
2015-May-27 12:34N 51°15' E 004°22'0 0.0
2015-May-27 11:33N 51°15' E 004°22'0 0.0
2015-May-27 10:34N 51°15' E 004°22'0 0.0
2015-May-27 09:34N 51°15' E 004°22'0 0.0
2015-May-27 08:34N 51°15' E 004°22'0 0.0
2015-May-27 07:33N 51°15' E 004°22'0 0.0
2015-May-27 06:34N 51°15' E 004°22'0 0.0
2015-May-27 05:34N 51°15' E 004°22'0 0.0
2015-May-27 04:34N 51°15' E 004°22'0 0.0
2015-May-27 03:33N 51°15' E 004°22'0 0.0
2015-May-27 02:34N 51°15' E 004°22'0 0.0
2015-May-27 01:34N 51°15' E 004°22'0 0.0
2015-May-27 00:34N 51°15' E 004°22'0 0.0
2015-May-26 23:34N 51°15' E 004°22'0 0.0
2015-May-26 22:34N 51°15' E 004°22'0 0.0
2015-May-26 21:34N 51°15' E 004°22'0 0.1
2015-May-26 20:34N 51°15' E 004°22'2 1.6
2015-May-26 19:34N 51°17' E 004°20'5 4.9
2015-May-26 18:33N 51°21' E 004°16'5 5.1
2015-May-26 17:33N 51°22' E 004°08'9 8.5
2015-May-26 16:33N 51°22' E 003°54'1111.1
2015-May-26 15:33N 51°26' E 003°38'1111.4
2015-May-26 14:33N 51°34' E 003°25'1211.7
2015-May-26 13:33N 51°44' E 003°14'8 2.6
2015-May-26 10:26N 51°50' E 003°24'0 0.0
2015-May-26 09:29N 51°50' E 003°24'0 0.0
2015-May-26 07:29N 51°50' E 003°24'0 0.0
2015-May-26 06:32N 51°50' E 003°24'21 1.4
2015-May-25 15:32N 52°07' E 003°42'0 0.2
2015-May-25 14:26N 52°07' E 003°42'0 0.0
2015-May-25 13:26N 52°07' E 003°42'0 0.0
2015-May-25 12:23N 52°07' E 003°42'0 0.0
2015-May-25 11:29N 52°07' E 003°42'0 0.0
2015-May-25 10:32N 52°07' E 003°43'0 0.1
2015-May-25 09:08N 52°07' E 003°43'0 0.0
2015-May-25 08:32N 52°07' E 003°42'0 0.0
2015-May-25 07:11N 52°07' E 003°43'0 0.0
2015-May-25 06:26N 52°07' E 003°42'0 0.1
2015-May-25 05:32N 52°07' E 003°43'0 0.1
2015-May-25 04:32N 52°07' E 003°42'0 0.0
2015-May-25 03:32N 52°07' E 003°42'0 0.0
2015-May-25 02:32N 52°07' E 003°42'0 0.0
2015-May-25 01:32N 52°07' E 003°42'0 0.0
2015-May-25 00:23N 52°07' E 003°42'0 0.1
2015-May-24 23:32N 52°07' E 003°42'0 0.1
2015-May-24 21:32N 52°07' E 003°43'0 0.0
2015-May-24 20:29N 52°07' E 003°43'0 0.0
2015-May-24 19:14N 52°07' E 003°43'0 0.0
2015-May-24 18:26N 52°07' E 003°43'0 0.0
2015-May-24 17:32N 52°07' E 003°42'0 0.0
2015-May-24 16:32N 52°07' E 003°42'0 0.1
2015-May-24 15:32N 52°07' E 003°42'0 0.0
2015-May-24 14:32N 52°07' E 003°42'0 0.0
2015-May-24 13:29N 52°07' E 003°42'0 0.0
2015-May-24 12:32N 52°07' E 003°42'0 0.0
2015-May-24 11:32N 52°07' E 003°42'0 0.1
2015-May-24 10:26N 52°07' E 003°43'0 0.0
2015-May-24 09:32N 52°07' E 003°43'0 0.0
2015-May-24 08:23N 52°07' E 003°43'0 0.0
2015-May-24 07:29N 52°07' E 003°43'0 0.0
2015-May-24 06:20N 52°07' E 003°43'0 0.0
2015-May-24 05:26N 52°07' E 003°42'0 0.0
2015-May-24 04:20N 52°07' E 003°42'0 0.1
2015-May-24 03:32N 52°07' E 003°42'0 0.0
2015-May-24 02:29N 52°07' E 003°42'0 0.0
2015-May-24 01:26N 52°07' E 003°42'0 0.0
2015-May-24 00:32N 52°07' E 003°42'0 0.0
2015-May-23 23:32N 52°07' E 003°42'0 0.0
2015-May-23 22:26N 52°07' E 003°42'0 0.0
2015-May-23 21:32N 52°07' E 003°42'0 0.0
2015-May-23 20:32N 52°07' E 003°42'0 0.0
2015-May-23 19:32N 52°07' E 003°42'0 0.1
2015-May-23 18:32N 52°07' E 003°42'0 0.0
2015-May-23 17:32N 52°07' E 003°43'0 0.2
2015-May-23 16:32N 52°07' E 003°42'0 0.0
2015-May-23 15:26N 52°07' E 003°42'0 0.0
2015-May-23 14:32N 52°07' E 003°42'0 0.0
2015-May-23 13:32N 52°07' E 003°42'0 0.0
2015-May-23 12:29N 52°07' E 003°42'0 0.0
2015-May-23 11:20N 52°07' E 003°42'0 0.0
2015-May-23 10:23N 52°07' E 003°42'0 0.0
2015-May-23 09:29N 52°07' E 003°42'0 0.0
2015-May-23 07:32N 52°07' E 003°42'0 0.1
2015-May-23 05:14N 52°07' E 003°43'0 0.0
2015-May-23 04:26N 52°07' E 003°43'0 0.0
2015-May-23 03:26N 52°07' E 003°43'0 0.1
2015-May-23 02:29N 52°07' E 003°42'0 0.1
2015-May-23 01:32N 52°07' E 003°42'0 0.0
2015-May-23 00:29N 52°07' E 003°42'0 0.0
2015-May-22 23:32N 52°07' E 003°42'0 0.0
2015-May-22 22:32N 52°07' E 003°42'0 0.1
2015-May-22 21:32N 52°07' E 003°43'0 0.0
2015-May-22 20:32N 52°07' E 003°43'0 0.0
2015-May-22 19:32N 52°07' E 003°43'0 0.0
2015-May-22 18:26N 52°07' E 003°43'0 0.0
2015-May-22 17:32N 52°07' E 003°43'0 0.0
2015-May-22 16:32N 52°07' E 003°43'0 0.0
2015-May-22 15:29N 52°07' E 003°43'0 0.0
2015-May-22 14:32N 52°07' E 003°43'0 0.1
2015-May-22 13:32N 52°07' E 003°42'0 0.0
2015-May-22 12:29N 52°07' E 003°42'0 0.0
2015-May-22 11:29N 52°07' E 003°42'0 0.0
2015-May-22 10:20N 52°07' E 003°42'0 0.1
2015-May-22 09:32N 52°07' E 003°43'0 0.1
2015-May-22 08:32N 52°07' E 003°43'0 0.0
2015-May-22 07:32N 52°07' E 003°43'0 0.0
2015-May-22 06:32N 52°07' E 003°43'0 0.0
2015-May-22 05:32N 52°07' E 003°43'0 0.0
2015-May-22 04:20N 52°07' E 003°43'0 0.0
2015-May-22 03:32N 52°07' E 003°43'0 0.0
2015-May-22 02:32N 52°07' E 003°43'0 0.1
2015-May-22 01:32N 52°07' E 003°43'0 0.1
2015-May-22 00:20N 52°07' E 003°42'0 0.0
2015-May-21 23:29N 52°07' E 003°42'0 0.0
2015-May-21 22:32N 52°07' E 003°42'0 0.1
2015-May-21 21:29N 52°07' E 003°43'0 0.1
2015-May-21 20:32N 52°07' E 003°43'0 0.0
2015-May-21 19:32N 52°07' E 003°43'0 0.0
2015-May-21 18:32N 52°07' E 003°43'0 0.0
2015-May-21 17:29N 52°07' E 003°43'0 0.0
2015-May-21 16:29N 52°07' E 003°43'0 0.0
2015-May-21 15:32N 52°07' E 003°43'0 0.1
2015-May-21 14:23N 52°07' E 003°43'0 0.1
2015-May-21 13:26N 52°07' E 003°42'0 0.1
2015-May-21 12:23N 52°07' E 003°42'0 0.0
2015-May-21 11:05N 52°07' E 003°42'0 0.0
2015-May-21 10:29N 52°07' E 003°42'0 0.0
2015-May-21 09:32N 52°07' E 003°42'4 3.2
2015-May-21 08:27N 52°10' E 003°40'0 0.0
2015-May-21 05:27N 52°10' E 003°40'0 0.0
2015-May-21 03:30N 52°10' E 003°40'0 0.0
2015-May-20 23:09N 52°10' E 003°40'2 2.9
2015-May-20 22:33N 52°09' E 003°41'1111.5
2015-May-20 21:33N 52°02' E 003°56'8 7.6
2015-May-20 20:31N 51°57' E 004°06'0 0.0
2015-May-20 19:31N 51°57' E 004°06'0 0.0
2015-May-20 18:31N 51°57' E 004°06'0 0.0
2015-May-20 17:28N 51°57' E 004°06'0 0.0
2015-May-20 16:31N 51°57' E 004°06'0 0.0
2015-May-20 15:31N 51°57' E 004°06'0 0.0
2015-May-20 14:31N 51°57' E 004°06'0 0.0
2015-May-20 13:25N 51°57' E 004°06'0 0.0
2015-May-20 12:31N 51°57' E 004°06'0 0.0
2015-May-20 11:31N 51°57' E 004°06'0 0.0
2015-May-20 10:31N 51°57' E 004°06'0 0.0
2015-May-20 09:31N 51°57' E 004°06'0 0.0
2015-May-20 08:31N 51°57' E 004°06'0 0.0
2015-May-20 07:31N 51°57' E 004°06'0 0.0
2015-May-20 06:31N 51°57' E 004°06'0 0.0
2015-May-20 05:31N 51°57' E 004°06'0 0.0
2015-May-20 04:28N 51°57' E 004°06'0 0.0
2015-May-20 03:31N 51°57' E 004°06'0 0.0
2015-May-20 02:25N 51°57' E 004°06'0 0.0
2015-May-20 01:28N 51°57' E 004°06'0 0.0
2015-May-20 00:33N 51°57' E 004°06'5 5.2
2015-May-19 23:33N 51°60' E 003°59'1010.2
2015-May-19 22:33N 51°59' E 003°42'4 3.6
2015-May-19 21:27N 51°56' E 003°37'0 0.1
2015-May-19 18:15N 51°56' E 003°38'  
Track history (hours):
 
Tides and Currents Weather Stations Pressure Air Temp Water Temp Dewpoint Dewpoint Depression Visibility Wind Speed Wind Dir Waves Ship Positions

Autumn

Last reported at 2015-May-29 15:31 UTC. Time now 2015-May-29 16:22 UTC.
Position N 50°57' E 001°12'.

Length 129 m; draft 8.3 m.

Type: Tanker. MMSI: 538003323.

Date/timePositionNaut miles runAvg speedWind from/ knotsBaromVisibWave heightAir tempDewpointWater temp
2015-May-29 15:31N 50°57' E 001°12'1111.2
2015-May-29 14:34N 51°03' E 001°25'1211.7
2015-May-29 13:33N 51°11' E 001°39'1110.6
2015-May-29 12:33N 51°19' E 001°51'10 9.6
2015-May-29 11:33N 51°25' E 002°03'1111.0
2015-May-29 10:33N 51°21' E 002°20'1010.5
2015-May-29 09:33N 51°23' E 002°36'1010.0
2015-May-29 08:33N 51°23' E 002°52'1110.9
2015-May-29 07:33N 51°24' E 003°10'1111.2
2015-May-29 06:33N 51°25' E 003°27'9 9.2
2015-May-29 05:33N 51°26' E 003°42'10 9.7
2015-May-29 04:34N 51°24' E 003°57'9 9.2
2015-May-29 03:33N 51°24' E 004°12'9 8.9
2015-May-29 02:34N 51°17' E 004°20'0 0.0
2015-May-29 01:34N 51°17' E 004°20'1 0.8
2015-May-29 00:33N 51°17' E 004°20'0 0.0
2015-May-28 23:33N 51°17' E 004°20'0 0.0
2015-May-28 22:33N 51°17' E 004°20'0 0.0
2015-May-28 21:33N 51°17' E 004°20'0 0.0
2015-May-28 20:33N 51°17' E 004°20'0 0.0
2015-May-28 19:33N 51°17' E 004°20'0 0.0
2015-May-28 18:33N 51°17' E 004°20'0 0.0
2015-May-28 17:33N 51°17' E 004°20'0 0.0
2015-May-28 16:33N 51°17' E 004°20'0 0.0
2015-May-28 15:33N 51°17' E 004°20'0 0.0
2015-May-28 14:33N 51°17' E 004°20'0 0.0
2015-May-28 13:33N 51°17' E 004°20'0 0.0
2015-May-28 12:33N 51°17' E 004°20'0 0.0
2015-May-28 11:30N 51°17' E 004°20'0 0.0
2015-May-28 10:30N 51°17' E 004°20'0 0.2
2015-May-28 09:33N 51°17' E 004°20'0 0.3
2015-May-28 08:33N 51°18' E 004°20'0 0.0
2015-May-28 07:34N 51°18' E 004°20'0 0.0
2015-May-28 06:33N 51°18' E 004°20'0 0.0
2015-May-28 05:34N 51°18' E 004°20'0 0.0
2015-May-28 04:34N 51°18' E 004°20'0 0.0
2015-May-28 03:34N 51°18' E 004°20'0 0.0
2015-May-28 02:34N 51°18' E 004°20'0 0.0
2015-May-28 01:34N 51°18' E 004°20'0 0.0
2015-May-28 00:34N 51°18' E 004°20'0 0.0
2015-May-27 23:34N 51°18' E 004°20'0 0.0
2015-May-27 22:34N 51°18' E 004°20'0 0.0
2015-May-27 21:34N 51°18' E 004°20'0 0.0
2015-May-27 20:34N 51°18' E 004°20'0 0.0
2015-May-27 19:33N 51°18' E 004°20'0 0.0
2015-May-27 18:34N 51°18' E 004°20'0 0.4
2015-May-27 17:34N 51°17' E 004°20'2 2.0
2015-May-27 16:34N 51°15' E 004°22'0 0.0
2015-May-27 15:34N 51°15' E 004°22'0 0.0
2015-May-27 14:33N 51°15' E 004°22'0 0.0
2015-May-27 13:33N 51°15' E 004°22'0 0.0
2015-May-27 12:34N 51°15' E 004°22'0 0.0
2015-May-27 11:33N 51°15' E 004°22'0 0.0
2015-May-27 10:34N 51°15' E 004°22'0 0.0
2015-May-27 09:34N 51°15' E 004°22'0 0.0
2015-May-27 08:34N 51°15' E 004°22'0 0.0
2015-May-27 07:33N 51°15' E 004°22'0 0.0
2015-May-27 06:34N 51°15' E 004°22'0 0.0
2015-May-27 05:34N 51°15' E 004°22'0 0.0
2015-May-27 04:34N 51°15' E 004°22'0 0.0
2015-May-27 03:33N 51°15' E 004°22'0 0.0
2015-May-27 02:34N 51°15' E 004°22'0 0.0
2015-May-27 01:34N 51°15' E 004°22'0 0.0
2015-May-27 00:34N 51°15' E 004°22'0 0.0
2015-May-26 23:34N 51°15' E 004°22'0 0.0
2015-May-26 22:34N 51°15' E 004°22'0 0.0
2015-May-26 21:34N 51°15' E 004°22'0 0.1
2015-May-26 20:34N 51°15' E 004°22'2 1.6
2015-May-26 19:34N 51°17' E 004°20'5 4.9
2015-May-26 18:33N 51°21' E 004°16'5 5.1
2015-May-26 17:33N 51°22' E 004°08'9 8.5
2015-May-26 16:33N 51°22' E 003°54'1111.1
2015-May-26 15:33N 51°26' E 003°38'1111.4
2015-May-26 14:33N 51°34' E 003°25'1211.7
2015-May-26 13:33N 51°44' E 003°14'8 2.6
2015-May-26 10:26N 51°50' E 003°24'0 0.0
2015-May-26 09:29N 51°50' E 003°24'0 0.0
2015-May-26 07:29N 51°50' E 003°24'0 0.0
2015-May-26 06:32N 51°50' E 003°24'21 1.4
2015-May-25 15:32N 52°07' E 003°42'0 0.2
2015-May-25 14:26N 52°07' E 003°42'0 0.0
2015-May-25 13:26N 52°07' E 003°42'0 0.0
2015-May-25 12:23N 52°07' E 003°42'0 0.0
2015-May-25 11:29N 52°07' E 003°42'0 0.0
2015-May-25 10:32N 52°07' E 003°43'0 0.1
2015-May-25 09:08N 52°07' E 003°43'0 0.0
2015-May-25 08:32N 52°07' E 003°42'0 0.0
2015-May-25 07:11N 52°07' E 003°43'0 0.0
2015-May-25 06:26N 52°07' E 003°42'0 0.1
2015-May-25 05:32N 52°07' E 003°43'0 0.1
2015-May-25 04:32N 52°07' E 003°42'0 0.0
2015-May-25 03:32N 52°07' E 003°42'0 0.0
2015-May-25 02:32N 52°07' E 003°42'0 0.0
2015-May-25 01:32N 52°07' E 003°42'0 0.0
2015-May-25 00:23N 52°07' E 003°42'0 0.1
2015-May-24 23:32N 52°07' E 003°42'0 0.1
2015-May-24 21:32N 52°07' E 003°43'0 0.0
2015-May-24 20:29N 52°07' E 003°43'0 0.0
2015-May-24 19:14N 52°07' E 003°43'0 0.0
2015-May-24 18:26N 52°07' E 003°43'0 0.0
2015-May-24 17:32N 52°07' E 003°42'0 0.0
2015-May-24 16:32N 52°07' E 003°42'0 0.1
2015-May-24 15:32N 52°07' E 003°42'0 0.0
2015-May-24 14:32N 52°07' E 003°42'0 0.0
2015-May-24 13:29N 52°07' E 003°42'0 0.0
2015-May-24 12:32N 52°07' E 003°42'0 0.0
2015-May-24 11:32N 52°07' E 003°42'0 0.1
2015-May-24 10:26N 52°07' E 003°43'0 0.0
2015-May-24 09:32N 52°07' E 003°43'0 0.0
2015-May-24 08:23N 52°07' E 003°43'0 0.0
2015-May-24 07:29N 52°07' E 003°43'0 0.0
2015-May-24 06:20N 52°07' E 003°43'0 0.0
2015-May-24 05:26N 52°07' E 003°42'0 0.0
2015-May-24 04:20N 52°07' E 003°42'0 0.1
2015-May-24 03:32N 52°07' E 003°42'0 0.0
2015-May-24 02:29N 52°07' E 003°42'0 0.0
2015-May-24 01:26N 52°07' E 003°42'0 0.0
2015-May-24 00:32N 52°07' E 003°42'0 0.0
2015-May-23 23:32N 52°07' E 003°42'0 0.0
2015-May-23 22:26N 52°07' E 003°42'0 0.0
2015-May-23 21:32N 52°07' E 003°42'0 0.0
2015-May-23 20:32N 52°07' E 003°42'0 0.0
2015-May-23 19:32N 52°07' E 003°42'0 0.1
2015-May-23 18:32N 52°07' E 003°42'0 0.0
2015-May-23 17:32N 52°07' E 003°43'0 0.2
2015-May-23 16:32N 52°07' E 003°42'0 0.0
2015-May-23 15:26N 52°07' E 003°42'0 0.0
2015-May-23 14:32N 52°07' E 003°42'0 0.0
2015-May-23 13:32N 52°07' E 003°42'0 0.0
2015-May-23 12:29N 52°07' E 003°42'0 0.0
2015-May-23 11:20N 52°07' E 003°42'0 0.0
2015-May-23 10:23N 52°07' E 003°42'0 0.0
2015-May-23 09:29N 52°07' E 003°42'0 0.0
2015-May-23 07:32N 52°07' E 003°42'0 0.1
2015-May-23 05:14N 52°07' E 003°43'0 0.0
2015-May-23 04:26N 52°07' E 003°43'0 0.0
2015-May-23 03:26N 52°07' E 003°43'0 0.1
2015-May-23 02:29N 52°07' E 003°42'0 0.1
2015-May-23 01:32N 52°07' E 003°42'0 0.0
2015-May-23 00:29N 52°07' E 003°42'0 0.0
2015-May-22 23:32N 52°07' E 003°42'0 0.0
2015-May-22 22:32N 52°07' E 003°42'0 0.1
2015-May-22 21:32N 52°07' E 003°43'0 0.0
2015-May-22 20:32N 52°07' E 003°43'0 0.0
2015-May-22 19:32N 52°07' E 003°43'0 0.0
2015-May-22 18:26N 52°07' E 003°43'0 0.0
2015-May-22 17:32N 52°07' E 003°43'0 0.0
2015-May-22 16:32N 52°07' E 003°43'0 0.0
2015-May-22 15:29N 52°07' E 003°43'0 0.0
2015-May-22 14:32N 52°07' E 003°43'0 0.1
2015-May-22 13:32N 52°07' E 003°42'0 0.0
2015-May-22 12:29N 52°07' E 003°42'0 0.0
2015-May-22 11:29N 52°07' E 003°42'0 0.0
2015-May-22 10:20N 52°07' E 003°42'0 0.1
2015-May-22 09:32N 52°07' E 003°43'0 0.1
2015-May-22 08:32N 52°07' E 003°43'0 0.0
2015-May-22 07:32N 52°07' E 003°43'0 0.0
2015-May-22 06:32N 52°07' E 003°43'0 0.0
2015-May-22 05:32N 52°07' E 003°43'0 0.0
2015-May-22 04:20N 52°07' E 003°43'0 0.0
2015-May-22 03:32N 52°07' E 003°43'0 0.0
2015-May-22 02:32N 52°07' E 003°43'0 0.1
2015-May-22 01:32N 52°07' E 003°43'0 0.1
2015-May-22 00:20N 52°07' E 003°42'0 0.0
2015-May-21 23:29N 52°07' E 003°42'0 0.0
2015-May-21 22:32N 52°07' E 003°42'0 0.1
2015-May-21 21:29N 52°07' E 003°43'0 0.1
2015-May-21 20:32N 52°07' E 003°43'0 0.0
2015-May-21 19:32N 52°07' E 003°43'0 0.0
2015-May-21 18:32N 52°07' E 003°43'0 0.0
2015-May-21 17:29N 52°07' E 003°43'0 0.0
2015-May-21 16:29N 52°07' E 003°43'0 0.0
2015-May-21 15:32N 52°07' E 003°43'0 0.1
2015-May-21 14:23N 52°07' E 003°43'0 0.1
2015-May-21 13:26N 52°07' E 003°42'0 0.1
2015-May-21 12:23N 52°07' E 003°42'0 0.0
2015-May-21 11:05N 52°07' E 003°42'0 0.0
2015-May-21 10:29N 52°07' E 003°42'0 0.0
2015-May-21 09:32N 52°07' E 003°42'4 3.2
2015-May-21 08:27N 52°10' E 003°40'0 0.0
2015-May-21 05:27N 52°10' E 003°40'0 0.0
2015-May-21 03:30N 52°10' E 003°40'0 0.0
2015-May-20 23:09N 52°10' E 003°40'2 2.9
2015-May-20 22:33N 52°09' E 003°41'1111.5
2015-May-20 21:33N 52°02' E 003°56'8 7.6
2015-May-20 20:31N 51°57' E 004°06'0 0.0
2015-May-20 19:31N 51°57' E 004°06'0 0.0
2015-May-20 18:31N 51°57' E 004°06'0 0.0
2015-May-20 17:28N 51°57' E 004°06'0 0.0
2015-May-20 16:31N 51°57' E 004°06'0 0.0
2015-May-20 15:31N 51°57' E 004°06'0 0.0
2015-May-20 14:31N 51°57' E 004°06'0 0.0
2015-May-20 13:25N 51°57' E 004°06'0 0.0
2015-May-20 12:31N 51°57' E 004°06'0 0.0
2015-May-20 11:31N 51°57' E 004°06'0 0.0
2015-May-20 10:31N 51°57' E 004°06'0 0.0
2015-May-20 09:31N 51°57' E 004°06'0 0.0
2015-May-20 08:31N 51°57' E 004°06'0 0.0
2015-May-20 07:31N 51°57' E 004°06'0 0.0
2015-May-20 06:31N 51°57' E 004°06'0 0.0
2015-May-20 05:31N 51°57' E 004°06'0 0.0
2015-May-20 04:28N 51°57' E 004°06'0 0.0
2015-May-20 03:31N 51°57' E 004°06'0 0.0
2015-May-20 02:25N 51°57' E 004°06'0 0.0
2015-May-20 01:28N 51°57' E 004°06'0 0.0
2015-May-20 00:33N 51°57' E 004°06'5 5.2
2015-May-19 23:33N 51°60' E 003°59'1010.2
2015-May-19 22:33N 51°59' E 003°42'4 3.6
2015-May-19 21:27N 51°56' E 003°37'0 0.1
2015-May-19 18:15N 51°56' E 003°38'  

Dump ship's entire track history